createdAt,value
2022-08-16T00:00:03.702Z,101629.00
2022-08-16T00:02:33.124Z,101622.25
2022-08-16T00:05:01.921Z,101628.41
2022-08-16T00:07:30.439Z,101638.13
2022-08-16T00:09:58.938Z,101625.09
2022-08-16T00:12:29.456Z,101629.59
2022-08-16T00:14:58.414Z,101638.47
2022-08-16T00:17:27.112Z,101634.28
2022-08-16T00:19:56.172Z,101640.34
2022-08-16T00:22:25.007Z,101629.81
2022-08-16T00:24:54.558Z,101639.41
2022-08-16T00:27:22.594Z,101622.97
2022-08-16T00:30:08.279Z,101643.97
2022-08-16T00:32:38.997Z,101606.88
2022-08-16T00:35:15.111Z,101644.97
2022-08-16T00:37:56.879Z,101650.41
2022-08-16T00:40:43.845Z,101644.22
2022-08-16T00:43:42.785Z,101646.97
2022-08-16T00:46:33.960Z,101646.16
2022-08-16T00:49:03.443Z,101644.47
2022-08-16T00:51:30.307Z,101621.19
2022-08-16T00:53:57.804Z,101640.22
2022-08-16T00:56:57.883Z,101635.13
2022-08-16T00:59:18.267Z,101644.84
2022-08-16T01:01:46.273Z,101640.47
2022-08-16T01:04:29.704Z,101648.47
2022-08-16T01:07:02.100Z,101642.34
2022-08-16T01:09:34.484Z,101652.09
2022-08-16T01:12:08.460Z,101626.22
2022-08-16T01:14:43.418Z,101648.56
2022-08-16T01:17:12.701Z,101584.66
2022-08-16T01:19:48.216Z,101645.09
2022-08-16T01:22:47.504Z,101651.16
2022-08-16T01:25:33.649Z,101657.44
2022-08-16T01:28:05.920Z,101657.50
2022-08-16T01:30:36.747Z,101655.63
2022-08-16T01:33:14.453Z,101613.34
2022-08-16T01:35:56.294Z,101656.63
2022-08-16T01:38:40.269Z,101649.88
2022-08-16T01:41:21.177Z,101671.03
2022-08-16T01:43:53.938Z,101651.69
2022-08-16T01:46:40.259Z,101664.81
2022-08-16T01:49:10.207Z,101650.91
2022-08-16T01:51:39.369Z,101662.13
2022-08-16T01:54:06.357Z,101642.75
2022-08-16T01:56:35.426Z,101656.63
2022-08-16T01:59:05.909Z,101658.28
2022-08-16T02:01:34.136Z,101660.81
2022-08-16T02:04:10.459Z,101658.94
2022-08-16T02:06:46.814Z,101630.06
2022-08-16T02:09:17.906Z,101649.88
2022-08-16T02:11:48.737Z,101662.06
2022-08-16T02:14:26.343Z,101658.44
2022-08-16T02:16:55.212Z,101661.75
2022-08-16T02:19:23.608Z,101657.25
2022-08-16T02:22:07.912Z,101662.22
2022-08-16T02:24:42.225Z,101656.72
2022-08-16T02:27:14.348Z,101660.00
2022-08-16T02:29:42.885Z,101657.16
2022-08-16T02:32:49.877Z,101657.72
2022-08-16T02:34:59.445Z,101657.44
2022-08-16T02:37:51.488Z,101655.31
2022-08-16T02:40:17.052Z,101658.59
2022-08-16T02:42:49.626Z,101650.47
2022-08-16T02:45:20.751Z,101658.28
2022-08-16T02:48:01.867Z,101657.22
2022-08-16T02:50:54.814Z,101664.13
2022-08-16T02:53:26.571Z,101662.44
2022-08-16T02:55:53.772Z,101665.19
2022-08-16T02:58:25.098Z,101657.94
2022-08-16T03:00:56.050Z,101665.53
2022-08-16T03:03:26.482Z,101667.19
2022-08-16T03:05:59.283Z,101661.81
2022-08-16T03:08:51.188Z,101661.66
2022-08-16T03:11:16.759Z,101659.59
2022-08-16T03:13:56.556Z,101664.69
2022-08-16T03:16:38.060Z,101662.63
2022-08-16T03:19:07.579Z,101672.03
2022-08-16T03:21:37.792Z,101654.91
2022-08-16T03:24:28.168Z,101634.88
2022-08-16T03:26:57.817Z,101668.69
2022-08-16T03:29:30.308Z,101666.78
2022-08-16T03:31:59.148Z,101662.19
2022-08-16T03:34:27.019Z,101667.28
2022-08-16T03:36:54.577Z,101660.09
2022-08-16T03:39:23.151Z,101666.78
2022-08-16T03:41:59.246Z,101659.59
2022-08-16T03:44:43.295Z,101658.72
2022-08-16T03:47:11.962Z,101663.91
2022-08-16T03:49:39.792Z,101659.59
2022-08-16T03:52:09.076Z,101671.41
2022-08-16T03:54:35.948Z,101672.19
2022-08-16T03:57:11.309Z,101667.69
2022-08-16T03:59:43.526Z,101676.16
2022-08-16T04:02:22.314Z,101684.78
2022-08-16T04:04:49.877Z,101688.91
2022-08-16T04:07:17.612Z,101682.59
2022-08-16T04:09:44.915Z,101675.41
2022-08-16T04:12:54.536Z,101659.59
2022-08-16T04:14:59.595Z,101688.09
2022-08-16T04:17:26.970Z,101687.91
2022-08-16T04:19:54.949Z,101678.94
2022-08-16T04:22:27.359Z,101686.50
2022-08-16T04:24:55.460Z,101681.81
2022-08-16T04:27:28.860Z,101683.19
2022-08-16T04:30:02.751Z,101688.88
2022-08-16T04:32:30.540Z,101675.34
2022-08-16T04:34:57.234Z,101649.28
2022-08-16T04:37:23.903Z,101688.59
2022-08-16T04:39:55.251Z,101691.88
2022-08-16T04:42:26.482Z,101686.69
2022-08-16T04:45:01.853Z,101692.53
2022-08-16T04:47:35.550Z,101684.00
2022-08-16T04:50:06.594Z,101690.91
2022-08-16T04:52:35.961Z,101687.53
2022-08-16T04:55:07.389Z,101682.06
2022-08-16T04:57:35.711Z,101691.28
2022-08-16T05:00:30.445Z,101680.34
2022-08-16T05:02:58.664Z,101690.72
2022-08-16T05:05:25.903Z,101696.63
2022-08-16T05:08:28.169Z,101687.41
2022-08-16T05:10:49.355Z,101696.81
2022-08-16T05:13:19.476Z,101690.16
2022-08-16T05:15:47.408Z,101685.47
2022-08-16T05:18:17.140Z,101688.69
2022-08-16T05:20:57.032Z,101690.00
2022-08-16T05:23:31.686Z,101691.31
2022-08-16T05:25:59.840Z,101663.13
2022-08-16T05:28:37.440Z,101688.78
2022-08-16T05:31:05.002Z,101690.22
2022-08-16T05:33:33.722Z,101697.75
2022-08-16T05:36:03.840Z,101679.59
2022-08-16T05:38:39.034Z,101680.59
2022-08-16T05:41:06.484Z,101686.34
2022-08-16T05:43:43.723Z,101685.34
2022-08-16T05:46:28.888Z,101688.81
2022-08-16T05:49:08.871Z,101693.09
2022-08-16T05:51:41.489Z,101686.44
2022-08-16T05:54:11.512Z,101677.50
2022-08-16T05:56:41.577Z,101695.69
2022-08-16T05:59:10.801Z,101693.56
2022-08-16T06:01:38.849Z,101699.38
2022-08-16T06:04:13.163Z,101696.38
2022-08-16T06:06:43.526Z,101693.34
2022-08-16T06:09:24.350Z,101699.34
2022-08-16T06:11:52.831Z,101686.66
2022-08-16T06:14:19.734Z,101683.84
2022-08-16T06:16:50.781Z,101686.34
2022-08-16T06:19:18.316Z,101690.44
2022-08-16T06:21:46.004Z,101693.88
2022-08-16T06:24:55.067Z,101695.72
2022-08-16T06:27:08.706Z,101687.00
2022-08-16T06:29:36.260Z,101670.50
2022-08-16T06:32:04.231Z,101676.63
2022-08-16T06:34:55.610Z,101682.81
2022-08-16T06:37:18.906Z,101689.16
2022-08-16T06:39:49.302Z,101687.19
2022-08-16T06:42:19.658Z,101686.66
2022-08-16T06:44:47.479Z,101686.56
2022-08-16T06:47:17.285Z,101685.50
2022-08-16T06:49:52.548Z,101690.75
2022-08-16T06:53:00.759Z,101691.72
2022-08-16T06:55:12.797Z,101692.38
2022-08-16T06:57:40.276Z,101689.22
2022-08-16T07:00:19.809Z,101694.72
2022-08-16T07:02:53.791Z,101666.38
2022-08-16T07:05:27.322Z,101674.63
2022-08-16T07:08:11.433Z,101698.41
2022-08-16T07:10:38.770Z,101692.97
2022-08-16T07:13:11.601Z,101686.06
2022-08-16T07:15:50.719Z,101690.03
2022-08-16T07:18:21.230Z,101684.75
2022-08-16T07:20:56.053Z,101686.38
2022-08-16T07:23:37.412Z,101682.34
2022-08-16T07:26:12.621Z,101685.22
2022-08-16T07:28:52.275Z,101692.16
2022-08-16T07:31:20.920Z,101684.41
2022-08-16T07:33:52.377Z,101672.66
2022-08-16T07:36:21.693Z,101684.19
2022-08-16T07:38:50.168Z,101655.84
2022-08-16T07:41:18.696Z,101680.47
2022-08-16T07:43:48.774Z,101673.22
2022-08-16T07:46:38.687Z,101664.38
2022-08-16T07:49:04.360Z,101669.66
2022-08-16T07:51:37.156Z,101667.22
2022-08-16T07:54:09.539Z,101668.31
2022-08-16T07:56:38.798Z,101672.09
2022-08-16T07:59:06.954Z,101670.03
2022-08-16T08:01:34.763Z,101662.00
2022-08-16T08:04:02.571Z,101671.69
2022-08-16T08:06:32.432Z,101632.25
2022-08-16T08:09:00.288Z,101661.69
2022-08-16T08:11:30.809Z,101658.94
2022-08-16T08:14:02.982Z,101663.56
2022-08-16T08:16:31.575Z,101663.81
2022-08-16T08:19:02.450Z,101654.88
2022-08-16T08:22:01.427Z,101650.16
2022-08-16T08:24:18.214Z,101637.81
2022-08-16T08:26:46.070Z,101661.38
2022-08-16T08:29:22.840Z,101640.16
2022-08-16T08:31:53.245Z,101649.28
2022-08-16T08:34:22.085Z,101660.41
2022-08-16T08:36:54.210Z,101659.34
2022-08-16T08:39:22.118Z,101647.41
2022-08-16T08:41:50.415Z,101653.84
2022-08-16T08:44:28.985Z,101639.91
2022-08-16T08:47:04.734Z,101645.50
2022-08-16T08:49:46.134Z,101652.69
2022-08-16T08:52:35.337Z,101653.72
2022-08-16T08:55:10.449Z,101656.00
2022-08-16T08:57:40.727Z,101650.88
2022-08-16T09:00:13.059Z,101645.19
2022-08-16T09:02:42.824Z,101614.44
2022-08-16T09:05:15.816Z,101644.66
2022-08-16T09:08:01.447Z,101635.88
2022-08-16T09:10:31.140Z,101635.72
2022-08-16T09:12:59.187Z,101636.06
2022-08-16T09:15:32.853Z,101628.28
2022-08-16T09:18:24.721Z,101647.25
2022-08-16T09:20:59.626Z,101636.16
2022-08-16T09:23:41.195Z,101632.81
2022-08-16T09:26:45.331Z,101625.81
2022-08-16T09:29:14.835Z,101624.50
2022-08-16T09:31:43.921Z,101613.81
2022-08-16T09:34:17.191Z,101639.59
2022-08-16T09:36:46.374Z,101633.72
2022-08-16T09:39:16.085Z,101640.53
2022-08-16T09:41:43.886Z,101630.84
2022-08-16T09:45:12.927Z,101635.50
2022-08-16T09:47:15.065Z,101633.69
2022-08-16T09:49:41.776Z,101634.75
2022-08-16T09:52:09.987Z,101633.50
2022-08-16T09:54:38.662Z,101634.00
2022-08-16T09:57:14.363Z,101627.34
2022-08-16T09:59:42.339Z,101630.59
2022-08-16T10:02:26.791Z,101632.56
2022-08-16T10:05:00.462Z,101625.38
2022-08-16T10:07:44.320Z,101614.66
2022-08-16T10:10:13.214Z,101624.13
2022-08-16T10:13:04.459Z,101623.78
2022-08-16T10:15:32.492Z,101626.06
2022-08-16T10:18:02.498Z,101621.56
2022-08-16T10:20:49.839Z,101594.88
2022-08-16T10:23:17.194Z,101623.06
2022-08-16T10:27:16.892Z,101622.69
2022-08-16T10:28:39.874Z,101616.34
2022-08-16T10:31:08.750Z,101617.94
2022-08-16T10:33:40.683Z,101618.72
2022-08-16T10:36:08.411Z,101607.94
2022-08-16T10:38:39.211Z,101613.47
2022-08-16T10:41:10.339Z,101605.28
2022-08-16T10:43:39.439Z,101606.81
2022-08-16T10:46:39.944Z,101602.09
2022-08-16T10:48:56.383Z,101600.81
2022-08-16T10:51:33.449Z,101600.38
2022-08-16T10:54:01.870Z,101596.75
2022-08-16T10:56:52.071Z,101599.53
2022-08-16T10:59:38.378Z,101600.47
2022-08-16T11:05:08.975Z,101586.84
2022-08-16T11:07:45.446Z,101588.97
2022-08-16T11:13:57.267Z,101584.53
2022-08-16T11:16:25.348Z,101582.09
2022-08-16T11:19:05.379Z,101577.84
2022-08-16T11:21:37.660Z,101574.19
2022-08-16T11:24:39.693Z,101566.78
2022-08-16T11:27:35.478Z,101576.31
2022-08-16T11:29:56.959Z,101574.72
2022-08-16T11:32:31.416Z,101567.00
2022-08-16T11:35:13.853Z,101569.16
2022-08-16T11:40:44.510Z,101578.28
2022-08-16T11:43:16.965Z,101556.69
2022-08-16T11:45:50.694Z,101571.31
2022-08-16T11:48:21.969Z,101562.91
2022-08-16T11:50:48.694Z,101571.72
2022-08-16T11:53:15.423Z,101571.34
2022-08-16T11:55:44.175Z,101537.28
2022-08-16T11:58:11.343Z,101559.91
2022-08-16T12:00:50.354Z,101557.06
2022-08-16T12:03:19.313Z,101556.09
2022-08-16T12:05:46.722Z,101551.91
2022-08-16T12:08:19.550Z,101552.28
2022-08-16T12:10:49.079Z,101554.44
2022-08-16T12:13:15.941Z,101556.13
2022-08-16T12:15:43.423Z,101547.28
2022-08-16T12:18:20.493Z,101534.38
2022-08-16T12:20:47.975Z,101549.31
2022-08-16T12:23:16.324Z,101535.47
2022-08-16T12:25:44.655Z,101537.13
2022-08-16T12:28:12.436Z,101536.25
2022-08-16T12:30:43.767Z,101530.19
2022-08-16T12:33:16.362Z,101529.34
2022-08-16T12:35:52.487Z,101534.38
2022-08-16T12:38:38.674Z,101530.72
2022-08-16T12:41:15.747Z,101528.16
2022-08-16T12:43:56.907Z,101501.06
2022-08-16T12:46:30.904Z,101516.44
2022-08-16T12:48:58.646Z,101515.38
2022-08-16T12:51:59.965Z,101505.56
2022-08-16T12:54:22.088Z,101519.09
2022-08-16T12:56:50.555Z,101512.44
2022-08-16T12:59:20.469Z,101510.31
2022-08-16T13:01:47.855Z,101508.91
2022-08-16T13:04:20.813Z,101505.88
2022-08-16T13:06:52.320Z,101507.16
2022-08-16T13:09:26.845Z,101501.56
2022-08-16T13:12:07.548Z,101504.28
2022-08-16T13:14:41.661Z,101494.72
2022-08-16T13:17:18.876Z,101509.78
2022-08-16T13:20:18.344Z,101483.47
2022-08-16T13:22:38.100Z,101482.75
2022-08-16T13:25:08.732Z,101498.16
2022-08-16T13:28:01.400Z,101497.03
2022-08-16T13:30:35.796Z,101481.81
2022-08-16T13:33:13.405Z,101486.88
2022-08-16T13:35:45.770Z,101492.53
2022-08-16T13:38:25.067Z,101496.16
2022-08-16T13:40:57.185Z,101497.56
2022-08-16T13:43:28.869Z,101471.16
2022-08-16T13:46:04.598Z,101492.06
2022-08-16T13:48:42.933Z,101493.84
2022-08-16T13:51:16.989Z,101493.44
2022-08-16T13:53:59.664Z,101458.16
2022-08-16T13:56:36.929Z,101482.72
2022-08-16T13:59:19.465Z,101480.97
2022-08-16T14:01:55.439Z,101494.25
2022-08-16T14:04:27.532Z,101477.72
2022-08-16T14:06:56.257Z,101489.03
2022-08-16T14:09:23.857Z,101494.81
2022-08-16T14:11:53.702Z,101494.63
2022-08-16T14:14:28.923Z,101484.53
2022-08-16T14:16:58.243Z,101493.41
2022-08-16T14:19:26.479Z,101492.44
2022-08-16T14:22:14.415Z,101490.78
2022-08-16T14:24:45.327Z,101492.22
2022-08-16T14:27:14.198Z,101500.72
2022-08-16T14:29:42.341Z,101490.34
2022-08-16T14:32:21.921Z,101496.25
2022-08-16T14:34:59.929Z,101499.75
2022-08-16T14:37:28.855Z,101499.03
2022-08-16T14:39:58.784Z,101498.50
2022-08-16T14:42:27.714Z,101499.66
2022-08-16T14:45:00.244Z,101483.97
2022-08-16T14:47:31.573Z,101480.91
2022-08-16T14:50:01.877Z,101500.72
2022-08-16T14:52:54.197Z,101494.34
2022-08-16T14:55:16.087Z,101500.38
2022-08-16T14:57:43.657Z,101504.34
2022-08-16T15:00:13.138Z,101494.13
2022-08-16T15:02:43.891Z,101495.09
2022-08-16T15:05:12.925Z,101493.94
2022-08-16T15:07:41.303Z,101488.78
2022-08-16T15:10:21.684Z,101496.25
2022-08-16T15:12:58.287Z,101491.28
2022-08-16T15:15:27.920Z,101488.25
2022-08-16T15:17:56.430Z,101486.75
2022-08-16T15:20:26.790Z,101485.03
2022-08-16T15:22:56.935Z,101481.28
2022-08-16T15:25:29.468Z,101477.72
2022-08-16T15:27:57.842Z,101482.16
2022-08-16T15:30:56.637Z,101480.44
2022-08-16T15:33:16.741Z,101472.91
2022-08-16T15:35:44.832Z,101486.63
2022-08-16T15:38:54.833Z,101482.72
2022-08-16T15:40:59.450Z,101483.19
2022-08-16T15:43:39.256Z,101490.31
2022-08-16T15:46:35.230Z,101455.28
2022-08-16T15:49:10.427Z,101463.22
2022-08-16T15:51:39.270Z,101489.16
2022-08-16T15:54:21.087Z,101484.88
2022-08-16T15:56:55.310Z,101474.13
2022-08-16T15:59:26.932Z,101486.53
2022-08-16T16:01:55.823Z,101494.78
2022-08-16T16:04:25.862Z,101493.81
2022-08-16T16:06:52.932Z,101487.59
2022-08-16T16:09:34.718Z,101493.94
2022-08-16T16:12:16.349Z,101484.72
2022-08-16T16:14:52.476Z,101503.44
2022-08-16T16:17:19.148Z,101506.72
2022-08-16T16:19:45.776Z,101502.28
2022-08-16T16:22:21.260Z,101497.88
2022-08-16T16:24:51.341Z,101505.41
2022-08-16T16:27:18.099Z,101504.25
2022-08-16T16:29:46.408Z,101507.50
2022-08-16T16:32:34.321Z,101510.94
2022-08-16T16:35:04.684Z,101479.28
2022-08-16T16:37:32.832Z,101509.47
2022-08-16T16:40:00.217Z,101509.59
2022-08-16T16:42:29.998Z,101509.72
2022-08-16T16:45:01.628Z,101500.34
2022-08-16T16:47:40.616Z,101505.59
2022-08-16T16:50:10.152Z,101517.94
2022-08-16T16:52:43.901Z,101512.41
2022-08-16T16:58:00.881Z,101513.94
2022-08-16T17:00:38.559Z,101522.81
2022-08-16T17:03:17.063Z,101514.06
2022-08-16T17:05:56.978Z,101520.53
2022-08-16T17:08:28.974Z,101519.50
2022-08-16T17:10:56.216Z,101506.16
2022-08-16T17:13:24.534Z,101513.72
2022-08-16T17:15:53.525Z,101517.38
2022-08-16T17:19:15.098Z,101514.72
2022-08-16T17:21:10.000Z,101524.72
2022-08-16T17:23:59.612Z,101523.44
2022-08-16T17:26:28.900Z,101522.94
2022-08-16T17:29:02.559Z,101523.50
2022-08-16T17:31:45.189Z,101524.97
2022-08-16T17:34:29.005Z,101523.50
2022-08-16T17:36:59.388Z,101512.53
2022-08-16T17:39:29.621Z,101528.78
2022-08-16T17:42:00.201Z,101519.41
2022-08-16T17:44:27.011Z,101530.59
2022-08-16T17:46:53.660Z,101526.19
2022-08-16T17:49:21.593Z,101534.34
2022-08-16T17:51:49.245Z,101530.78
2022-08-16T17:54:20.412Z,101504.97
2022-08-16T17:57:01.245Z,101532.94
2022-08-16T17:59:29.552Z,101520.47
2022-08-16T18:01:57.631Z,101508.09
2022-08-16T18:04:48.299Z,101501.19
2022-08-16T18:07:12.265Z,101520.34
2022-08-16T18:09:40.698Z,101518.44
2022-08-16T18:12:44.786Z,101523.91
2022-08-16T18:15:02.308Z,101516.16
2022-08-16T18:17:28.925Z,101502.41
2022-08-16T18:19:55.651Z,101515.41
2022-08-16T18:22:30.579Z,101511.41
2022-08-16T18:24:58.073Z,101526.59
2022-08-16T18:27:27.319Z,101522.28
2022-08-16T18:29:57.452Z,101520.97
2022-08-16T18:32:24.830Z,101519.69
2022-08-16T18:34:54.495Z,101512.16
2022-08-16T18:37:34.570Z,101519.75
2022-08-16T18:40:01.882Z,101511.81
2022-08-16T18:42:28.906Z,101509.72
2022-08-16T18:44:57.085Z,101513.28
2022-08-16T18:47:23.765Z,101515.63
2022-08-16T18:49:50.447Z,101517.72
2022-08-16T18:53:10.325Z,101473.09
2022-08-16T18:55:37.499Z,101518.66
2022-08-16T18:58:14.283Z,101504.13
2022-08-16T19:00:56.429Z,101519.06
2022-08-16T19:03:27.108Z,101524.72
2022-08-16T19:06:04.031Z,101535.97
2022-08-16T19:08:31.807Z,101503.22
2022-08-16T19:10:58.505Z,101528.69
2022-08-16T19:13:27.890Z,101528.34
2022-08-16T19:15:58.469Z,101534.09
2022-08-16T19:18:26.397Z,101540.63
2022-08-16T19:20:55.566Z,101528.47
2022-08-16T19:23:26.267Z,101528.19
2022-08-16T19:26:04.903Z,101523.78
2022-08-16T19:28:50.993Z,101526.06
2022-08-16T19:31:29.793Z,101527.97
2022-08-16T19:33:57.955Z,101522.31
2022-08-16T19:36:35.795Z,101530.25
2022-08-16T19:39:18.571Z,101535.91
2022-08-16T19:41:57.236Z,101529.22
2022-08-16T19:44:24.441Z,101526.81
2022-08-16T19:46:51.410Z,101527.09
2022-08-16T19:49:18.164Z,101531.97
2022-08-16T19:51:46.011Z,101527.09
2022-08-16T19:54:12.792Z,101521.31
2022-08-16T19:56:39.447Z,101527.38
2022-08-16T19:59:36.150Z,101523.16
2022-08-16T20:01:53.234Z,101535.75
2022-08-16T20:04:21.765Z,101518.31
2022-08-16T20:06:48.679Z,101533.09
2022-08-16T20:09:16.073Z,101531.63
2022-08-16T20:11:49.499Z,101505.59
2022-08-16T20:14:19.267Z,101527.06
2022-08-16T20:16:52.036Z,101534.22
2022-08-16T20:19:18.845Z,101505.59
2022-08-16T20:21:45.560Z,101519.31
2022-08-16T20:24:32.959Z,101512.41
2022-08-16T20:26:58.970Z,101514.03
2022-08-16T20:29:27.526Z,101517.56
2022-08-16T20:31:54.247Z,101525.53
2022-08-16T20:34:20.945Z,101520.44
2022-08-16T20:36:47.672Z,101519.66
2022-08-16T20:39:14.573Z,101508.38
2022-08-16T20:41:42.471Z,101511.81
2022-08-16T20:44:10.867Z,101518.91
2022-08-16T20:46:38.994Z,101514.66
2022-08-16T20:49:09.116Z,101529.00
2022-08-16T20:51:50.936Z,101513.31
2022-08-16T20:54:20.575Z,101513.41
2022-08-16T20:56:48.318Z,101516.19
2022-08-16T20:59:15.266Z,101512.19
2022-08-16T21:01:46.514Z,101510.19
2022-08-16T21:04:20.206Z,101488.22
2022-08-16T21:06:53.410Z,101511.25
2022-08-16T21:09:32.700Z,101456.75
2022-08-16T21:12:17.953Z,101510.94
2022-08-16T21:14:45.623Z,101481.78
2022-08-16T21:17:20.353Z,101518.16
2022-08-16T21:19:47.040Z,101508.75
2022-08-16T21:22:31.926Z,101516.56
2022-08-16T21:25:03.078Z,101523.88
2022-08-16T21:27:30.096Z,101515.34
2022-08-16T21:29:56.897Z,101520.53
2022-08-16T21:32:35.648Z,101506.72
2022-08-16T21:35:12.054Z,101523.47
2022-08-16T21:37:40.197Z,101518.28
2022-08-16T21:40:12.049Z,101456.78
2022-08-16T21:42:41.870Z,101486.56
2022-08-16T21:45:12.483Z,101519.50
2022-08-16T21:47:39.154Z,101516.91
2022-08-16T21:50:09.343Z,101497.34
2022-08-16T21:52:36.469Z,101509.34
2022-08-16T21:55:06.712Z,101499.75
2022-08-16T21:57:36.752Z,101513.03
2022-08-16T22:00:11.222Z,101511.41
2022-08-16T22:02:38.984Z,101509.00
2022-08-16T22:05:06.261Z,101510.91
2022-08-16T22:07:33.415Z,101507.44
2022-08-16T22:10:00.173Z,101504.09
2022-08-16T22:12:46.921Z,101508.56
2022-08-16T22:15:14.611Z,101498.19
2022-08-16T22:17:42.797Z,101495.25
2022-08-16T22:20:10.791Z,101497.72
2022-08-16T22:22:38.343Z,101512.69
2022-08-16T22:25:05.925Z,101505.03
2022-08-16T22:27:32.805Z,101509.59
2022-08-16T22:30:00.355Z,101480.28
2022-08-16T22:32:27.845Z,101503.72
2022-08-16T22:34:55.581Z,101508.13
2022-08-16T22:37:26.243Z,101506.63
2022-08-16T22:39:52.983Z,101485.22
2022-08-16T22:42:19.921Z,101513.72
2022-08-16T22:44:49.172Z,101516.44
2022-08-16T22:47:17.898Z,101512.31
2022-08-16T22:49:44.841Z,101492.44
2022-08-16T22:52:11.523Z,101501.34
2022-08-16T22:54:47.675Z,101489.34
2022-08-16T22:57:20.893Z,101497.13
2022-08-16T22:59:47.593Z,101505.03
2022-08-16T23:02:19.700Z,101519.09
2022-08-16T23:04:46.389Z,101491.41
2022-08-16T23:07:13.039Z,101512.22
2022-08-16T23:09:39.674Z,101516.75
2022-08-16T23:12:07.809Z,101516.94
2022-08-16T23:14:34.494Z,101518.03
2022-08-16T23:17:01.362Z,101515.28
2022-08-16T23:19:28.066Z,101520.72
2022-08-16T23:21:54.703Z,101507.59
2022-08-16T23:24:21.345Z,101518.50
2022-08-16T23:26:49.341Z,101531.53
2022-08-16T23:29:24.262Z,101518.94
2022-08-16T23:31:56.980Z,101523.88
2022-08-16T23:34:24.935Z,101523.78
2022-08-16T23:36:51.941Z,101519.38
2022-08-16T23:39:18.641Z,101524.56
2022-08-16T23:41:45.408Z,101519.47
2022-08-16T23:44:42.379Z,101523.78
2022-08-16T23:46:59.880Z,101523.88
2022-08-16T23:49:55.984Z,101537.41
2022-08-16T23:52:13.872Z,101524.22
2022-08-16T23:54:40.523Z,101526.09
2022-08-16T23:57:08.133Z,101523.75
2022-08-16T23:59:48.663Z,101479.81
